createdAt,value
2023-08-24T00:01:09.720Z,8.90
2023-08-24T00:04:15.205Z,8.40
2023-08-24T00:07:21.297Z,8.05
2023-08-24T00:10:26.848Z,8.40
2023-08-24T00:13:34.875Z,8.07
2023-08-24T00:16:40.298Z,7.10
2023-08-24T00:19:45.645Z,6.95
2023-08-24T00:22:51.141Z,7.65
2023-08-24T00:25:56.649Z,5.80
2023-08-24T00:29:04.593Z,7.97
2023-08-24T00:32:10.980Z,5.32
2023-08-24T00:35:17.174Z,5.78
2023-08-24T00:38:22.592Z,5.38
2023-08-24T00:41:28.566Z,4.50
2023-08-24T00:44:36.721Z,4.30
2023-08-24T00:47:42.909Z,4.50
2023-08-24T00:50:51.342Z,4.45
2023-08-24T00:53:58.853Z,4.15
2023-08-24T00:57:04.608Z,4.18
2023-08-24T01:00:15.139Z,4.22
2023-08-24T01:03:20.657Z,4.47
2023-08-24T01:06:26.040Z,3.88
2023-08-24T01:09:31.586Z,4.60
2023-08-24T01:12:40.843Z,4.20
2023-08-24T01:15:52.460Z,4.38
2023-08-24T01:18:58.823Z,3.67
2023-08-24T01:22:06.140Z,4.05
2023-08-24T01:25:16.152Z,4.28
2023-08-24T01:28:24.935Z,4.32
2023-08-24T01:31:30.452Z,4.28
2023-08-24T01:34:36.671Z,3.97
2023-08-24T01:37:43.332Z,4.40
2023-08-24T01:40:52.598Z,4.45
2023-08-24T01:44:02.029Z,4.10
2023-08-24T01:47:09.348Z,4.78
2023-08-24T01:50:14.786Z,4.70
2023-08-24T01:53:21.015Z,3.75
2023-08-24T01:56:26.603Z,4.43
2023-08-24T01:59:35.024Z,4.03
2023-08-24T02:02:40.598Z,4.03
2023-08-24T02:05:46.340Z,4.68
2023-08-24T02:08:51.677Z,3.72
2023-08-24T02:11:57.274Z,3.80
2023-08-24T02:15:05.566Z,4.43
2023-08-24T02:18:11.366Z,3.72
2023-08-24T02:21:17.564Z,4.15
2023-08-24T02:24:23.245Z,3.17
2023-08-24T02:27:28.616Z,3.67
2023-08-24T02:30:36.580Z,4.60
2023-08-24T02:33:42.175Z,3.42
2023-08-24T02:36:48.744Z,4.20
2023-08-24T02:39:54.285Z,3.55
2023-08-24T02:42:59.939Z,3.70
2023-08-24T02:46:09.020Z,3.67
2023-08-24T02:49:14.975Z,3.47
2023-08-24T02:52:23.458Z,3.60
2023-08-24T02:55:29.114Z,3.55
2023-08-24T02:58:34.747Z,3.92
2023-08-24T03:01:43.018Z,3.30
2023-08-24T03:04:49.045Z,3.47
2023-08-24T03:07:56.749Z,3.55
2023-08-24T03:11:02.459Z,3.08
2023-08-24T03:14:07.780Z,3.83
2023-08-24T03:17:17.439Z,4.03
2023-08-24T03:20:23.805Z,3.83
2023-08-24T03:23:29.561Z,3.88
2023-08-24T03:26:35.169Z,3.92
2023-08-24T03:29:40.614Z,3.72
2023-08-24T03:32:48.850Z,3.67
2023-08-24T03:35:54.257Z,4.05
2023-08-24T03:39:00.101Z,4.25
2023-08-24T03:42:08.749Z,3.85
2023-08-24T03:45:14.322Z,4.35
2023-08-24T03:48:22.738Z,4.68
2023-08-24T03:51:29.224Z,4.78
2023-08-24T03:54:35.970Z,5.15
2023-08-24T03:57:41.959Z,4.53
2023-08-24T04:00:48.833Z,5.28
2023-08-24T04:03:59.069Z,5.38
2023-08-24T04:07:05.502Z,4.90
2023-08-24T04:10:11.692Z,5.88
2023-08-24T04:13:17.801Z,5.10
2023-08-24T04:16:23.240Z,6.22
2023-08-24T04:19:31.467Z,5.53
2023-08-24T04:22:37.093Z,4.93
2023-08-24T04:25:44.796Z,5.47
2023-08-24T04:28:50.538Z,5.30
2023-08-24T04:31:55.940Z,5.25
2023-08-24T04:35:04.445Z,6.00
2023-08-24T04:38:12.350Z,5.78
2023-08-24T04:41:17.544Z,6.07
2023-08-24T04:44:23.157Z,4.68
2023-08-24T04:47:28.787Z,7.50
2023-08-24T04:50:36.951Z,5.97
2023-08-24T04:53:42.417Z,5.38
2023-08-24T04:56:47.916Z,6.05
2023-08-24T04:59:53.243Z,5.63
2023-08-24T05:02:58.725Z,5.57
2023-08-24T05:06:06.714Z,6.32
2023-08-24T05:09:12.352Z,6.07
2023-08-24T05:12:17.813Z,5.70
2023-08-24T05:15:23.313Z,5.85
2023-08-24T05:18:28.632Z,7.00
2023-08-24T05:21:36.671Z,6.28
2023-08-24T05:24:41.816Z,6.55
2023-08-24T05:27:47.377Z,6.47
2023-08-24T05:30:52.802Z,6.43
2023-08-24T05:33:58.084Z,6.30
2023-08-24T05:37:06.162Z,6.03
2023-08-24T05:40:12.180Z,6.70
2023-08-24T05:43:18.174Z,5.57
2023-08-24T05:46:24.072Z,6.20
2023-08-24T05:49:29.699Z,6.45
2023-08-24T05:52:37.515Z,6.15
2023-08-24T05:55:42.814Z,6.38
2023-08-24T05:58:48.134Z,7.03
2023-08-24T06:01:53.301Z,6.65
2023-08-24T06:04:58.696Z,6.97
2023-08-24T06:08:06.798Z,7.25
2023-08-24T06:11:11.965Z,6.82
2023-08-24T06:14:17.262Z,7.55
2023-08-24T06:17:22.683Z,6.97
2023-08-24T06:20:28.017Z,7.30
2023-08-24T06:23:36.148Z,7.22
2023-08-24T06:26:41.352Z,7.32
2023-08-24T06:29:47.216Z,6.97
2023-08-24T06:32:52.452Z,6.35
2023-08-24T06:35:57.891Z,6.65
2023-08-24T06:39:06.209Z,6.32
2023-08-24T06:42:11.682Z,5.97
2023-08-24T06:45:18.342Z,5.93
2023-08-24T06:48:23.754Z,6.22
2023-08-24T06:51:29.317Z,6.13
2023-08-24T06:54:37.272Z,5.38
2023-08-24T06:57:42.753Z,5.40
2023-08-24T07:00:48.204Z,5.80
2023-08-24T07:03:53.334Z,5.43
2023-08-24T07:06:59.187Z,5.80
2023-08-24T07:10:07.824Z,6.35
2023-08-24T07:13:13.675Z,5.43
2023-08-24T07:16:19.098Z,5.63
2023-08-24T07:19:24.670Z,5.20
2023-08-24T07:22:30.679Z,6.20
2023-08-24T07:25:38.588Z,5.85
2023-08-24T07:28:43.991Z,6.00
2023-08-24T07:31:49.642Z,6.28
2023-08-24T07:34:55.011Z,5.80
2023-08-24T07:38:00.858Z,6.05
2023-08-24T07:41:08.648Z,5.88
2023-08-24T07:44:14.491Z,6.45
2023-08-24T07:47:20.095Z,6.22
2023-08-24T07:50:26.814Z,5.20
2023-08-24T07:53:34.171Z,5.28
2023-08-24T07:56:42.469Z,5.23
2023-08-24T07:59:47.831Z,5.20
2023-08-24T08:02:54.221Z,5.35
2023-08-24T08:05:59.926Z,5.47
2023-08-24T08:09:05.529Z,4.95
2023-08-24T08:12:13.704Z,5.22
2023-08-24T08:15:19.083Z,4.50
2023-08-24T08:18:24.444Z,4.07
2023-08-24T08:21:29.741Z,4.65
2023-08-24T08:24:35.186Z,4.68
2023-08-24T08:27:43.292Z,4.75
2023-08-24T08:30:48.544Z,5.25
2023-08-24T08:33:54.075Z,4.30
2023-08-24T08:36:59.922Z,4.75
2023-08-24T08:40:07.409Z,4.40
2023-08-24T08:43:15.226Z,4.40
2023-08-24T08:46:20.630Z,4.78
2023-08-24T08:49:25.920Z,4.60
2023-08-24T08:52:31.203Z,4.45
2023-08-24T08:55:36.912Z,4.43
2023-08-24T08:58:45.598Z,4.85
2023-08-24T09:01:52.274Z,5.75
2023-08-24T09:04:57.463Z,4.47
2023-08-24T09:08:04.422Z,5.18
2023-08-24T09:11:09.771Z,4.65
2023-08-24T09:14:17.775Z,5.05
2023-08-24T09:17:25.903Z,5.00
2023-08-24T09:23:36.429Z,4.85
2023-08-24T09:26:44.307Z,4.45
2023-08-24T09:29:54.555Z,4.50
2023-08-24T09:33:00.038Z,5.30
2023-08-24T09:36:05.820Z,4.53
2023-08-24T09:39:11.830Z,4.65
2023-08-24T09:42:17.921Z,4.22
2023-08-24T09:45:26.031Z,4.72
2023-08-24T09:51:37.787Z,4.13
2023-08-24T09:54:43.941Z,4.20
2023-08-24T09:57:50.450Z,4.40
2023-08-24T10:00:58.903Z,5.15
2023-08-24T10:04:04.831Z,4.30
2023-08-24T10:07:13.140Z,4.35
2023-08-24T10:13:28.119Z,4.82
2023-08-24T10:16:36.394Z,4.22
2023-08-24T10:19:42.083Z,3.80
2023-08-24T10:22:48.151Z,3.60
2023-08-24T10:25:54.888Z,3.80
2023-08-24T10:29:01.780Z,3.65
2023-08-24T10:32:10.145Z,3.45
2023-08-24T10:35:17.180Z,3.30
2023-08-24T10:38:29.690Z,3.88
2023-08-24T10:41:50.082Z,3.35
2023-08-24T10:44:55.480Z,3.58
2023-08-24T10:48:03.719Z,3.58
2023-08-24T10:51:23.204Z,3.75
2023-08-24T10:54:34.516Z,3.25
2023-08-24T10:57:44.007Z,3.60
2023-08-24T11:00:54.200Z,3.45
2023-08-24T11:04:02.052Z,3.25
2023-08-24T11:07:07.888Z,3.10
2023-08-24T11:10:17.219Z,3.40
2023-08-24T11:13:24.486Z,3.10
2023-08-24T11:16:47.604Z,3.50
2023-08-24T11:19:57.116Z,3.80
2023-08-24T11:23:02.604Z,4.13
2023-08-24T11:26:07.817Z,2.88
2023-08-24T11:29:13.819Z,3.00
2023-08-24T11:32:19.374Z,3.33
2023-08-24T11:35:27.451Z,2.95
2023-08-24T11:38:42.337Z,3.05
2023-08-24T11:41:50.106Z,6.03
2023-08-24T11:44:55.554Z,3.10
2023-08-24T11:48:02.331Z,2.97
2023-08-24T11:51:13.698Z,3.35
2023-08-24T11:54:19.443Z,2.92
2023-08-24T11:57:26.422Z,2.90
2023-08-24T12:00:31.945Z,2.60
2023-08-24T12:03:37.297Z,2.40
2023-08-24T12:06:45.485Z,2.88
2023-08-24T12:16:04.724Z,2.70
2023-08-24T12:19:12.521Z,2.58
2023-08-24T12:22:20.552Z,2.30
2023-08-24T12:25:29.381Z,2.40
2023-08-24T12:28:34.705Z,2.05
2023-08-24T12:31:40.530Z,2.08
2023-08-24T12:34:45.990Z,2.50
2023-08-24T12:37:54.065Z,2.60
2023-08-24T12:40:59.194Z,2.17
2023-08-24T12:44:07.018Z,2.13
2023-08-24T12:47:12.405Z,2.17
2023-08-24T12:50:17.885Z,2.40
2023-08-24T12:53:25.589Z,2.40
2023-08-24T12:56:30.978Z,2.22
2023-08-24T12:59:36.283Z,2.25
2023-08-24T13:02:41.607Z,2.53
2023-08-24T13:05:46.965Z,2.70
2023-08-24T13:08:54.883Z,2.08
2023-08-24T13:15:05.772Z,2.10
2023-08-24T13:18:12.262Z,2.10
2023-08-24T13:21:18.694Z,1.80
2023-08-24T13:24:27.342Z,1.83
2023-08-24T13:27:32.803Z,2.42
2023-08-24T13:30:38.273Z,1.88
2023-08-24T13:33:43.446Z,1.80
2023-08-24T13:36:48.859Z,2.17
2023-08-24T13:39:56.872Z,2.20
2023-08-24T13:43:02.210Z,2.58
2023-08-24T13:46:07.937Z,2.10
2023-08-24T13:49:19.759Z,2.25
2023-08-24T13:52:31.486Z,1.70
2023-08-24T13:55:39.881Z,2.08
2023-08-24T13:58:45.587Z,1.90
2023-08-24T14:01:50.801Z,2.38
2023-08-24T14:04:56.010Z,2.08
2023-08-24T14:08:01.158Z,2.63
2023-08-24T14:11:10.140Z,2.40
2023-08-24T14:14:15.388Z,2.33
2023-08-24T14:17:20.788Z,2.70
2023-08-24T14:20:26.124Z,2.15
2023-08-24T14:23:31.961Z,2.20
2023-08-24T14:26:40.811Z,2.45
2023-08-24T14:29:46.384Z,2.28
2023-08-24T14:32:51.606Z,2.30
2023-08-24T14:35:57.195Z,2.88
2023-08-24T14:39:02.626Z,2.47
2023-08-24T14:42:10.905Z,2.65
